Tampa, Florida
Current Conditions -  °F | °C
As of 2:53 AM on Monday 22 Dec 2014 (Local Time) from KTPA Reporting Station
Overcast Overcast  
Wind Chill: 68°   Ceiling: 2500
Heat Index: 68°   Visibility: 9mi
Dew Point: 65°   Wind: 0mph
Humidity: 90%   Direction: NA
Pressure: 30"   Gusts: NA
Location:  27.95°N, 82.46°W
Report Text: KTPA 220753Z 00000KT 9SM BKN025 OVC038 20/18 A3000 RMK AO2 SLP157 T02000183
Loading
Personal Weather Stations






























Interactive Weather Map New forecast layout! Learn more

10-Day Weather Forecast

Advertisements
Track Severe Weather on mobile